createdAt,value
2019-04-11T00:02:26.922Z,95423.00
2019-04-11T00:04:58.891Z,95415.00
2019-04-11T00:07:30.756Z,95415.00
2019-04-11T00:10:04.073Z,95412.00
2019-04-11T00:12:36.810Z,95413.00
2019-04-11T00:15:08.846Z,95420.00
2019-04-11T00:17:41.834Z,95417.00
2019-04-11T00:20:13.790Z,95423.00
2019-04-11T00:22:47.864Z,95409.00
2019-04-11T00:25:19.828Z,95420.00
2019-04-11T00:27:53.051Z,95427.00
2019-04-11T00:30:26.139Z,95421.00
2019-04-11T00:32:58.489Z,95426.00
2019-04-11T00:35:31.433Z,95421.00
2019-04-11T00:38:03.570Z,95429.00
2019-04-11T00:40:35.687Z,95427.00
2019-04-11T00:43:07.803Z,95423.00
2019-04-11T00:45:40.098Z,95434.00
2019-04-11T00:48:11.950Z,95430.00
2019-04-11T00:50:43.767Z,95434.00
2019-04-11T00:53:16.032Z,95436.00
2019-04-11T00:55:48.399Z,95440.00
2019-04-11T00:58:21.292Z,95438.00
2019-04-11T01:00:53.485Z,95445.00
2019-04-11T01:03:26.433Z,95438.00
2019-04-11T01:05:59.284Z,95436.00
2019-04-11T01:08:31.521Z,95426.00
2019-04-11T01:11:03.639Z,95440.00
2019-04-11T01:13:45.599Z,95429.00
2019-04-11T01:16:26.855Z,95438.00
2019-04-11T01:19:00.368Z,95442.00
2019-04-11T01:21:32.838Z,95439.00
2019-04-11T01:24:04.677Z,95435.00
2019-04-11T01:26:37.178Z,95436.00
2019-04-11T01:29:09.287Z,95432.00
2019-04-11T01:31:42.758Z,95439.00
2019-04-11T01:34:14.800Z,95440.00
2019-04-11T01:36:47.264Z,95439.00
2019-04-11T01:39:32.723Z,95442.00
2019-04-11T01:42:04.886Z,95436.00
2019-04-11T01:44:37.310Z,95442.00
2019-04-11T01:47:10.858Z,95445.00
2019-04-11T01:49:42.686Z,95444.00
2019-04-11T01:52:14.493Z,95434.00
2019-04-11T01:54:46.337Z,95453.00
2019-04-11T01:57:18.430Z,95448.00
2019-04-11T01:59:51.317Z,95451.00
2019-04-11T02:02:32.674Z,95452.00
2019-04-11T02:05:13.631Z,95448.00
2019-04-11T02:07:45.449Z,95453.00
2019-04-11T02:10:17.307Z,95451.00
2019-04-11T02:12:51.123Z,95458.00
2019-04-11T02:15:24.705Z,95468.00
2019-04-11T02:17:57.278Z,95465.00
2019-04-11T02:20:29.289Z,95467.00
2019-04-11T02:23:15.255Z,95466.00
2019-04-11T02:26:05.028Z,95463.00
2019-04-11T02:28:37.196Z,95472.00
2019-04-11T02:31:10.154Z,95477.00
2019-04-11T02:33:43.338Z,95479.00
2019-04-11T02:36:16.673Z,95473.00
2019-04-11T02:38:54.025Z,95485.00
2019-04-11T02:41:22.896Z,95493.00
2019-04-11T02:43:55.206Z,95478.00
2019-04-11T02:46:37.002Z,95481.00
2019-04-11T02:49:01.507Z,95485.00
2019-04-11T02:51:34.611Z,95489.00
2019-04-11T02:54:07.694Z,95492.00
2019-04-11T02:56:40.707Z,95490.00
2019-04-11T02:59:13.552Z,95496.00
2019-04-11T03:01:46.431Z,95498.00
2019-04-11T03:04:20.084Z,95500.00
2019-04-11T03:06:52.164Z,95505.00
2019-04-11T03:09:24.250Z,95502.00
2019-04-11T03:11:56.865Z,95504.00
2019-04-11T03:14:46.193Z,95509.00
2019-04-11T03:17:14.106Z,95503.00
2019-04-11T03:19:49.114Z,95501.00
2019-04-11T03:22:10.724Z,95497.00
2019-04-11T03:24:43.003Z,95510.00
2019-04-11T03:27:15.556Z,95508.00
2019-04-11T03:29:49.203Z,95507.00
2019-04-11T03:37:56.925Z,95513.00
2019-04-11T03:40:22.582Z,95502.00
2019-04-11T03:42:52.403Z,95510.00
2019-04-11T03:45:32.804Z,95504.00
2019-04-11T03:47:59.517Z,95507.00
2019-04-11T03:50:21.474Z,95519.00
2019-04-11T03:52:51.801Z,95509.00
2019-04-11T03:55:25.994Z,95514.00
2019-04-11T03:57:59.318Z,95508.00
2019-04-11T04:00:36.367Z,95513.00
2019-04-11T04:03:06.179Z,95522.00
2019-04-11T04:05:39.027Z,95521.00
2019-04-11T04:08:12.984Z,95525.00
2019-04-11T04:11:04.057Z,95529.00
2019-04-11T04:13:38.957Z,95524.00
2019-04-11T04:16:35.632Z,95530.00
2019-04-11T04:19:20.475Z,95535.00
2019-04-11T04:22:05.099Z,95544.00
2019-04-11T04:24:40.364Z,95541.00
2019-04-11T04:27:13.190Z,95540.00
2019-04-11T04:29:49.633Z,95547.00
2019-04-11T04:32:20.553Z,95536.00
2019-04-11T04:34:53.041Z,95550.00
2019-04-11T04:37:26.693Z,95552.00
2019-04-11T04:40:21.718Z,95553.00
2019-04-11T04:42:38.889Z,95549.00
2019-04-11T04:45:08.983Z,95552.00
2019-04-11T04:47:47.869Z,95547.00
2019-04-11T04:50:14.353Z,95552.00
2019-04-11T04:52:46.202Z,95550.00
2019-04-11T04:55:21.615Z,95550.00
2019-04-11T04:57:55.494Z,95558.00
2019-04-11T05:00:28.082Z,95561.00
2019-04-11T05:03:02.216Z,95550.00
2019-04-11T05:05:35.751Z,95559.00
2019-04-11T05:08:08.418Z,95558.00
2019-04-11T05:10:41.314Z,95561.00
2019-04-11T05:13:15.114Z,95561.00
2019-04-11T05:15:46.684Z,95564.00
2019-04-11T05:18:20.646Z,95561.00
2019-04-11T05:20:52.737Z,95561.00
2019-04-11T05:23:25.508Z,95568.00
2019-04-11T05:25:59.992Z,95558.00
2019-04-11T05:28:32.268Z,95570.00
2019-04-11T05:31:04.257Z,95561.00
2019-04-11T05:33:37.009Z,95562.00
2019-04-11T05:36:08.810Z,95564.00
2019-04-11T05:38:42.139Z,95561.00
2019-04-11T05:41:15.344Z,95564.00
2019-04-11T05:43:47.440Z,95567.00
2019-04-11T05:46:30.979Z,95563.00
2019-04-11T05:49:02.628Z,95561.00
2019-04-11T05:51:39.508Z,95563.00
2019-04-11T05:54:10.605Z,95561.00
2019-04-11T05:56:43.692Z,95565.00
2019-04-11T05:59:18.870Z,95561.00
2019-04-11T06:01:56.248Z,95555.00
2019-04-11T06:04:56.220Z,95555.00
2019-04-11T06:07:55.659Z,95549.00
2019-04-11T06:10:33.815Z,95554.00
2019-04-11T06:13:14.665Z,95546.00
2019-04-11T06:15:49.278Z,95554.00
2019-04-11T06:18:43.854Z,95556.00
2019-04-11T06:21:19.964Z,95557.00
2019-04-11T06:24:11.948Z,95554.00
2019-04-11T06:27:09.621Z,95561.00
2019-04-11T06:30:01.300Z,95564.00
2019-04-11T06:32:52.130Z,95580.00
2019-04-11T06:35:44.157Z,95567.00
2019-04-11T06:38:42.776Z,95584.00
2019-04-11T06:41:34.751Z,95578.00
2019-04-11T06:44:25.812Z,95584.00
2019-04-11T06:47:22.956Z,95586.00
2019-04-11T06:50:06.853Z,95586.00
2019-04-11T06:52:39.233Z,95589.00
2019-04-11T06:55:33.023Z,95592.00
2019-04-11T06:58:11.625Z,95600.00
2019-04-11T07:00:47.531Z,95600.00
2019-04-11T07:03:27.647Z,95595.00
2019-04-11T07:06:00.186Z,95593.00
2019-04-11T07:08:41.246Z,95596.00
2019-04-11T07:11:14.142Z,95594.00
2019-04-11T07:13:53.288Z,95604.00
2019-04-11T07:16:25.547Z,95597.00
2019-04-11T07:19:11.676Z,95595.00
2019-04-11T07:21:44.093Z,95603.00
2019-04-11T07:24:23.078Z,95595.00
2019-04-11T07:27:01.007Z,95598.00
2019-04-11T07:29:51.768Z,95600.00
2019-04-11T07:32:25.949Z,95600.00
2019-04-11T07:35:15.800Z,95599.00
2019-04-11T07:37:51.037Z,95593.00
2019-04-11T07:40:41.225Z,95601.00
2019-04-11T07:43:32.049Z,95604.00
2019-04-11T07:46:22.862Z,95609.00
2019-04-11T07:49:03.891Z,95607.00
2019-04-11T07:51:48.714Z,95608.00
2019-04-11T07:54:22.518Z,95590.00
2019-04-11T07:57:12.903Z,95594.00
2019-04-11T08:00:12.940Z,95602.00
2019-04-11T08:03:15.820Z,95595.00
2019-04-11T08:06:13.308Z,95595.00
2019-04-11T08:09:03.000Z,95599.00
2019-04-11T08:11:54.020Z,95600.00
2019-04-11T08:14:51.179Z,95599.00
2019-04-11T08:17:36.789Z,95607.00
2019-04-11T08:20:25.671Z,95605.00
2019-04-11T08:23:03.554Z,95605.00
2019-04-11T08:25:53.680Z,95615.00
2019-04-11T08:28:26.689Z,95617.00
2019-04-11T08:31:26.762Z,95617.00
2019-04-11T08:34:04.912Z,95631.00
2019-04-11T08:36:56.782Z,95622.00
2019-04-11T08:39:33.281Z,95620.00
2019-04-11T08:42:25.185Z,95632.00
2019-04-11T08:44:58.717Z,95625.00
2019-04-11T08:47:44.760Z,95622.00
2019-04-11T08:50:14.612Z,95625.00
2019-04-11T08:53:14.229Z,95633.00
2019-04-11T08:55:58.632Z,95627.00
2019-04-11T08:58:40.595Z,95631.00
2019-04-11T09:01:14.241Z,95622.00
2019-04-11T09:04:03.024Z,95626.00
2019-04-11T09:06:32.613Z,95630.00
2019-04-11T09:09:23.110Z,95624.00
2019-04-11T09:11:58.326Z,95628.00
2019-04-11T09:14:48.534Z,95630.00
2019-04-11T09:17:23.369Z,95630.00
2019-04-11T09:20:32.331Z,95632.00
2019-04-11T09:23:15.053Z,95636.00
2019-04-11T09:26:18.267Z,95630.00
2019-04-11T09:28:53.559Z,95627.00
2019-04-11T09:31:45.569Z,95632.00
2019-04-11T09:34:46.010Z,95628.00
2019-04-11T09:37:25.399Z,95629.00
2019-04-11T09:40:05.797Z,95637.00
2019-04-11T09:42:59.711Z,95636.00
2019-04-11T09:45:43.897Z,95641.00
2019-04-11T09:48:34.758Z,95642.00
2019-04-11T09:51:25.690Z,95635.00
2019-04-11T09:54:12.088Z,95642.00
2019-04-11T09:57:02.294Z,95634.00
2019-04-11T09:59:53.928Z,95633.00
2019-04-11T10:02:44.049Z,95640.00
2019-04-11T10:05:18.159Z,95643.00
2019-04-11T10:08:08.557Z,95642.00
2019-04-11T10:11:15.551Z,95646.00
2019-04-11T10:14:19.677Z,95644.00
2019-04-11T10:17:26.015Z,95646.00
2019-04-11T10:20:02.693Z,95646.00
2019-04-11T10:22:52.647Z,95641.00
2019-04-11T10:25:40.321Z,95637.00
2019-04-11T10:28:31.351Z,95633.00
2019-04-11T10:31:14.799Z,95641.00
2019-04-11T10:34:11.876Z,95640.00
2019-04-11T10:36:53.753Z,95650.00
2019-04-11T10:39:51.343Z,95649.00
2019-04-11T10:42:26.319Z,95652.00
2019-04-11T10:45:31.039Z,95659.00
2019-04-11T10:48:05.490Z,95658.00
2019-04-11T10:51:03.018Z,95651.00
2019-04-11T10:53:35.356Z,95647.00
2019-04-11T10:56:32.687Z,95643.00
2019-04-11T10:59:05.209Z,95643.00
2019-04-11T11:02:02.752Z,95643.00
2019-04-11T11:04:37.251Z,95642.00
2019-04-11T11:07:21.339Z,95648.00
2019-04-11T11:10:13.995Z,95649.00
2019-04-11T11:13:05.663Z,95647.00
2019-04-11T11:15:42.004Z,95647.00
2019-04-11T11:18:48.219Z,95651.00
2019-04-11T11:21:05.483Z,95657.00
2019-04-11T11:23:49.348Z,95645.00
2019-04-11T11:26:33.911Z,95643.00
2019-04-11T11:29:24.384Z,95646.00
2019-04-11T11:32:09.277Z,95656.00
2019-04-11T11:34:55.102Z,95665.00
2019-04-11T11:37:47.089Z,95665.00
2019-04-11T11:40:44.340Z,95661.00
2019-04-11T11:43:25.346Z,95663.00
2019-04-11T11:46:25.660Z,95659.00
2019-04-11T11:49:02.736Z,95664.00
2019-04-11T11:51:41.446Z,95662.00
2019-04-11T11:54:19.819Z,95661.00
2019-04-11T11:56:54.080Z,95655.00
2019-04-11T11:59:44.989Z,95660.00
2019-04-11T12:02:25.001Z,95666.00
2019-04-11T12:05:14.860Z,95670.00
2019-04-11T12:08:00.560Z,95656.00
2019-04-11T12:10:39.902Z,95658.00
2019-04-11T12:13:47.349Z,95663.00
2019-04-11T12:16:23.767Z,95660.00
2019-04-11T12:19:20.382Z,95661.00
2019-04-11T12:21:52.258Z,95661.00
2019-04-11T12:24:41.096Z,95655.00
2019-04-11T12:27:31.126Z,95668.00
2019-04-11T12:30:30.907Z,95669.00
2019-04-11T12:33:21.504Z,95672.00
2019-04-11T12:36:01.287Z,95680.00
2019-04-11T12:38:55.465Z,95681.00
2019-04-11T12:41:30.917Z,95669.00
2019-04-11T12:44:30.602Z,95673.00
2019-04-11T12:47:14.790Z,95671.00
2019-04-11T12:50:17.376Z,95669.00
2019-04-11T12:53:01.744Z,95666.00
2019-04-11T12:56:02.665Z,95668.00
2019-04-11T12:58:42.819Z,95665.00
2019-04-11T13:01:32.808Z,95674.00
2019-04-11T13:04:23.580Z,95681.00
2019-04-11T13:07:26.322Z,95672.00
2019-04-11T13:10:10.542Z,95677.00
2019-04-11T13:13:13.654Z,95670.00
2019-04-11T13:16:12.068Z,95671.00
2019-04-11T13:18:56.289Z,95667.00
2019-04-11T13:21:32.879Z,95667.00
2019-04-11T13:24:23.669Z,95661.00
2019-04-11T13:27:13.601Z,95669.00
2019-04-11T13:30:04.819Z,95661.00
2019-04-11T13:32:55.155Z,95678.00
2019-04-11T13:36:04.276Z,95673.00
2019-04-11T13:38:40.900Z,95657.00
2019-04-11T13:41:30.577Z,95670.00
2019-04-11T13:44:21.817Z,95674.00
2019-04-11T13:47:30.929Z,95675.00
2019-04-11T13:50:16.081Z,95660.00
2019-04-11T13:53:13.454Z,95660.00
2019-04-11T13:55:45.361Z,95665.00
2019-04-11T13:58:48.918Z,95671.00
2019-04-11T14:01:20.753Z,95680.00
2019-04-11T14:04:01.751Z,95684.00
2019-04-11T14:06:37.746Z,95673.00
2019-04-11T14:09:40.570Z,95686.00
2019-04-11T14:12:15.130Z,95679.00
2019-04-11T14:14:56.303Z,95689.00
2019-04-11T14:17:56.496Z,95686.00
2019-04-11T14:20:53.063Z,95684.00
2019-04-11T14:23:43.767Z,95682.00
2019-04-11T14:26:41.382Z,95687.00
2019-04-11T14:29:32.509Z,95685.00
2019-04-11T14:32:26.678Z,95691.00
2019-04-11T14:35:23.550Z,95682.00
2019-04-11T14:38:10.633Z,95677.00
2019-04-11T14:41:11.873Z,95667.00
2019-04-11T14:43:47.718Z,95671.00
2019-04-11T14:46:37.299Z,95664.00
2019-04-11T14:49:14.273Z,95668.00
2019-04-11T14:52:09.139Z,95667.00
2019-04-11T14:54:43.543Z,95672.00
2019-04-11T14:57:32.894Z,95671.00
2019-04-11T15:00:14.112Z,95685.00
2019-04-11T15:03:03.926Z,95682.00
2019-04-11T15:05:46.125Z,95682.00
2019-04-11T15:08:26.040Z,95688.00
2019-04-11T15:11:18.431Z,95691.00
2019-04-11T15:13:51.061Z,95696.00
2019-04-11T15:16:41.818Z,95688.00
2019-04-11T15:19:13.629Z,95701.00
2019-04-11T15:22:04.051Z,95691.00
2019-04-11T15:24:37.679Z,95695.00
2019-04-11T15:27:38.509Z,95701.00
2019-04-11T15:30:16.702Z,95695.00
2019-04-11T15:33:02.480Z,95699.00
2019-04-11T15:35:34.319Z,95699.00
2019-04-11T15:38:24.039Z,95695.00
2019-04-11T15:40:57.994Z,95699.00
2019-04-11T15:44:01.150Z,95697.00
2019-04-11T15:46:34.708Z,95689.00
2019-04-11T15:49:30.303Z,95697.00
2019-04-11T15:52:01.345Z,95699.00
2019-04-11T15:54:52.122Z,95699.00
2019-04-11T15:57:35.256Z,95701.00
2019-04-11T16:00:30.671Z,95706.00
2019-04-11T16:03:10.819Z,95707.00
2019-04-11T16:06:02.168Z,95710.00
2019-04-11T16:08:58.654Z,95709.00
2019-04-11T16:11:52.309Z,95717.00
2019-04-11T16:14:50.421Z,95718.00
2019-04-11T16:17:44.615Z,95711.00
2019-04-11T16:20:18.865Z,95711.00
2019-04-11T16:23:15.579Z,95715.00
2019-04-11T16:25:54.918Z,95717.00
2019-04-11T16:28:45.236Z,95716.00
2019-04-11T16:31:17.358Z,95715.00
2019-04-11T16:34:10.722Z,95719.00
2019-04-11T16:36:54.988Z,95716.00
2019-04-11T16:39:49.993Z,95710.00
2019-04-11T16:42:27.915Z,95710.00
2019-04-11T16:45:24.667Z,95721.00
2019-04-11T16:48:03.921Z,95704.00
2019-04-11T16:50:35.696Z,95714.00
2019-04-11T16:53:10.509Z,95710.00
2019-04-11T16:55:43.141Z,95719.00
2019-04-11T16:58:19.253Z,95716.00
2019-04-11T17:00:52.163Z,95723.00
2019-04-11T17:03:25.135Z,95716.00
2019-04-11T17:06:13.524Z,95723.00
2019-04-11T17:09:03.810Z,95719.00
2019-04-11T17:11:35.929Z,95722.00
2019-04-11T17:14:11.963Z,95724.00
2019-04-11T17:16:44.398Z,95738.00
2019-04-11T17:19:16.342Z,95727.00
2019-04-11T17:21:51.373Z,95727.00
2019-04-11T17:24:23.654Z,95731.00
2019-04-11T17:26:55.461Z,95732.00
2019-04-11T17:29:27.654Z,95733.00
2019-04-11T17:32:02.529Z,95732.00
2019-04-11T17:34:34.377Z,95737.00
2019-04-11T17:37:06.257Z,95740.00
2019-04-11T17:39:38.570Z,95736.00
2019-04-11T17:42:10.814Z,95746.00
2019-04-11T17:44:44.439Z,95741.00
2019-04-11T17:47:16.245Z,95748.00
2019-04-11T17:49:49.729Z,95756.00
2019-04-11T17:52:21.886Z,95751.00
2019-04-11T17:54:54.203Z,95757.00
2019-04-11T17:57:27.741Z,95759.00
2019-04-11T18:00:00.154Z,95761.00
2019-04-11T18:02:31.990Z,95766.00
2019-04-11T18:05:04.196Z,95761.00
2019-04-11T18:07:36.203Z,95775.00
2019-04-11T18:10:08.138Z,95770.00
2019-04-11T18:12:40.040Z,95778.00
2019-04-11T18:15:12.433Z,95781.00
2019-04-11T18:17:49.239Z,95785.00
2019-04-11T18:20:22.585Z,95780.00
2019-04-11T18:22:55.769Z,95787.00
2019-04-11T18:25:28.003Z,95782.00
2019-04-11T18:27:59.711Z,95796.00
2019-04-11T18:30:37.346Z,95791.00
2019-04-11T18:33:09.673Z,95797.00
2019-04-11T18:35:41.513Z,95799.00
2019-04-11T18:38:13.458Z,95801.00
2019-04-11T18:40:45.318Z,95795.00
2019-04-11T18:43:17.286Z,95796.00
2019-04-11T18:45:49.107Z,95808.00
2019-04-11T18:48:22.527Z,95808.00
2019-04-11T18:50:54.426Z,95811.00
2019-04-11T18:53:27.295Z,95816.00
2019-04-11T18:56:01.566Z,95807.00
2019-04-11T18:58:34.417Z,95807.00
2019-04-11T19:01:09.094Z,95806.00
2019-04-11T19:03:41.856Z,95813.00
2019-04-11T19:06:13.858Z,95814.00
2019-04-11T19:08:45.677Z,95827.00
2019-04-11T19:11:17.567Z,95824.00
2019-04-11T19:13:49.713Z,95822.00
2019-04-11T19:16:21.691Z,95825.00
2019-04-11T19:18:53.676Z,95827.00
2019-04-11T19:21:25.532Z,95823.00
2019-04-11T19:23:57.974Z,95838.00
2019-04-11T19:26:30.121Z,95836.00
2019-04-11T19:29:02.244Z,95833.00
2019-04-11T19:31:34.166Z,95836.00
2019-04-11T19:34:08.635Z,95836.00
2019-04-11T19:36:43.090Z,95836.00
2019-04-11T19:39:15.359Z,95839.00
2019-04-11T19:41:48.114Z,95849.00
2019-04-11T19:44:20.610Z,95839.00
2019-04-11T19:46:52.506Z,95846.00
2019-04-11T19:49:28.758Z,95844.00
2019-04-11T19:52:01.550Z,95844.00
2019-04-11T19:54:33.626Z,95846.00
2019-04-11T19:57:06.806Z,95844.00
2019-04-11T19:59:38.625Z,95862.00
2019-04-11T20:02:10.481Z,95844.00
2019-04-11T20:04:42.701Z,95841.00
2019-04-11T20:07:14.658Z,95838.00
2019-04-11T20:09:47.449Z,95843.00
2019-04-11T20:12:19.287Z,95846.00
2019-04-11T20:14:51.081Z,95845.00
2019-04-11T20:17:23.016Z,95854.00
2019-04-11T20:20:01.209Z,95855.00
2019-04-11T20:22:29.065Z,95861.00
2019-04-11T20:25:01.160Z,95853.00
2019-04-11T20:27:33.044Z,95853.00
2019-04-11T20:30:05.532Z,95855.00
2019-04-11T20:32:37.730Z,95851.00
2019-04-11T20:35:10.303Z,95850.00
2019-04-11T20:37:44.649Z,95853.00
2019-04-11T20:40:18.871Z,95859.00
2019-04-11T20:42:53.967Z,95857.00
2019-04-11T20:45:28.478Z,95855.00
2019-04-11T20:48:00.394Z,95864.00
2019-04-11T20:50:34.012Z,95869.00
2019-04-11T20:53:12.569Z,95874.00
2019-04-11T20:55:40.017Z,95871.00
2019-04-11T20:58:11.955Z,95870.00
2019-04-11T21:00:50.963Z,95872.00
2019-04-11T21:03:17.707Z,95861.00
2019-04-11T21:05:50.303Z,95878.00
2019-04-11T21:08:22.175Z,95876.00
2019-04-11T21:10:54.307Z,95883.00
2019-04-11T21:13:26.146Z,95876.00
2019-04-11T21:15:58.040Z,95881.00
2019-04-11T21:18:30.444Z,95883.00
2019-04-11T21:21:02.567Z,95883.00
2019-04-11T21:23:34.478Z,95890.00
2019-04-11T21:26:06.278Z,95883.00
2019-04-11T21:28:38.610Z,95886.00
2019-04-11T21:31:10.431Z,95897.00
2019-04-11T21:33:42.597Z,95899.00
2019-04-11T21:36:14.723Z,95895.00
2019-04-11T21:38:46.645Z,95890.00
2019-04-11T21:41:19.614Z,95901.00
2019-04-11T21:43:52.060Z,95905.00
2019-04-11T21:46:23.870Z,95906.00
2019-04-11T21:48:55.744Z,95899.00
2019-04-11T21:51:27.621Z,95900.00
2019-04-11T21:53:59.493Z,95905.00
2019-04-11T21:56:32.455Z,95905.00
2019-04-11T21:59:04.298Z,95904.00
2019-04-11T22:01:37.877Z,95912.00
2019-04-11T22:04:09.810Z,95914.00
2019-04-11T22:06:42.010Z,95908.00
2019-04-11T22:09:14.142Z,95907.00
2019-04-11T22:11:45.969Z,95915.00
2019-04-11T22:14:18.202Z,95915.00
2019-04-11T22:16:50.019Z,95909.00
2019-04-11T22:19:21.898Z,95916.00
2019-04-11T22:21:53.799Z,95911.00
2019-04-11T22:24:25.955Z,95915.00
2019-04-11T22:26:58.051Z,95912.00
2019-04-11T22:29:29.916Z,95910.00
2019-04-11T22:32:01.773Z,95916.00
2019-04-11T22:34:52.191Z,95914.00
2019-04-11T22:37:23.996Z,95911.00
2019-04-11T22:39:56.095Z,95921.00
2019-04-11T22:42:27.985Z,95922.00
2019-04-11T22:44:59.865Z,95912.00
2019-04-11T22:47:31.692Z,95911.00
2019-04-11T22:50:03.653Z,95915.00
2019-04-11T22:52:35.466Z,95917.00
2019-04-11T22:55:10.983Z,95918.00
2019-04-11T22:57:43.615Z,95912.00
2019-04-11T23:00:15.324Z,95914.00
2019-04-11T23:02:57.549Z,95905.00
2019-04-11T23:05:29.607Z,95908.00
2019-04-11T23:08:02.891Z,95907.00
2019-04-11T23:10:34.894Z,95909.00
2019-04-11T23:13:06.970Z,95912.00
2019-04-11T23:15:39.384Z,95906.00
2019-04-11T23:18:11.828Z,95917.00
2019-04-11T23:20:45.003Z,95907.00
2019-04-11T23:23:16.850Z,95914.00
2019-04-11T23:25:48.658Z,95917.00
2019-04-11T23:28:20.486Z,95913.00
2019-04-11T23:30:52.638Z,95921.00
2019-04-11T23:33:24.596Z,95923.00
2019-04-11T23:35:56.383Z,95915.00
2019-04-11T23:38:28.212Z,95917.00
2019-04-11T23:41:00.022Z,95925.00
2019-04-11T23:43:32.165Z,95919.00
2019-04-11T23:46:03.948Z,95922.00
2019-04-11T23:48:35.783Z,95921.00
2019-04-11T23:51:07.853Z,95918.00
2019-04-11T23:53:39.687Z,95925.00
2019-04-11T23:56:11.481Z,95916.00
2019-04-11T23:58:43.721Z,95912.00
